Aérodrome :
LOGIN :

S'inscrire | Disclaimer

   EN    FR    IT 

 










Légende :    VFR   VFR Marginal   IFR   IFR Intensif   IFR Très Intensif
Visi : 
Plafond : 
>= 8 km
>= 3000ft
5 à 8 km
1000 à 3000 ft
1500m à 5 km
500 à 1000 ft
800 à 1500m
200 à 500 ft
< 800m
< 200 ft
Symboles :   Orages  Brouillard  Fortes neiges  Fortes précipitations  Vent > 20 kt
SIGMETs :   Divers  Orages  Givrage  Turbulence  Onde Orograph.  Cendres Volcan.






- Altitude de l'aérodrome : 56 ft
- Code IATA : BZR


LFMU - Beziers / Vias

DERNIER METAR :
  • 211000Z AUTO 13022G33KT 9999 FEW011 BKN028 OVC033 18/15 Q1014 TEMPO BKN008

METARs EXPIRÉS :
  • 210930Z AUTO 13021G34KT 9999 SCT024 OVC030 18/15 Q1014 TEMPO BKN008
  • 210900Z AUTO 12020KT 9999 FEW013 BKN020 BKN030 18/15 Q1014 TEMPO 12025G40KT BKN009
  • 210830Z AUTO 12020G32KT 9999 OVC018 18/15 Q1014 TEMPO BKN009
  • 210800Z AUTO 12019KT 080V140 9999 FEW012 OVC018 17/15 Q1014 TEMPO BKN009 BECMG 11020G30KT
  • 210730Z AUTO 11020KT 9999 FEW013 OVC018 17/15 Q1014 TEMPO BKN009 BECMG 11020G30KT

TAF AMD TAF LFMU
Valide du 21 à 09h jusqu'au 22 à 09h UTC


210914Z 2109/2209 11020G30KT 9999 OVC020
TEMPO 2109/2209 BKN008
PROB40
TEMPO 2110/2116 12025G40KT
TEMPO 2118/2124 11015KT
ATIS : +33 4 67 90 88 88



MET'MAP, la Météo Aéronautique d'un coup d'oeil ! - Copyright ORBIFLY Décembre 2007 - Disclaimer

ORBIFLY MET'MAP TEAM :

Programmation & Développement : Alexandra Zaïnal
Sur une idée originale de : Baudouin d'Aumeries
Assistance à la programmation : Marc-Olivier Méhu
Soutien technique & logistique : Manuel Goepfert

Contact : metmap@orbifly.com




SOURCES & CREDITS :

   NOAA